Time;durP1;ratioP1;P1;durP2;ratioP2;P2;SDS_P1;SDS_P2;PMS_P1;PMS_P2;Temp;Humidity;BMP_temperature;BMP_pressure;BME280_temperature;BME280_humidity;BME280_pressure;Samples;Min_cycle;Max_cycle;Signal;HPM_P1;HPM_P2
2023/06/12 00:02:20;;;;;;;;;9.00;9.00;;;;;24.65;36.86;101568.03;5050745;28;8836;-64
2023/06/12 00:04:46;;;;;;;;;9.00;9.00;;;;;24.66;37.15;101565.00;5050482;28;8854;-64
2023/06/12 00:07:16;;;;;;;;;11.00;11.00;;;;;24.63;36.93;101565.56;5050800;28;8856;-64
2023/06/12 00:09:43;;;;;;;;;8.25;8.25;;;;;24.61;37.03;101564.97;5050682;28;8825;-64
2023/06/12 00:12:10;;;;;;;;;9.25;9.25;;;;;24.52;36.39;101561.13;5050599;28;8806;-64
2023/06/12 00:14:37;;;;;;;;;9.00;8.50;;;;;24.52;36.57;101561.13;5050362;28;8842;-64
2023/06/12 00:17:04;;;;;;;;;11.25;11.25;;;;;24.48;36.64;101562.75;5049157;28;8956;-63
2023/06/12 00:19:30;;;;;;;;;11.00;9.75;;;;;24.46;36.33;101564.94;5050568;28;8868;-66
2023/06/12 00:21:57;;;;;;;;;6.50;6.50;;;;;24.43;35.88;101557.25;5049592;28;8825;-64
2023/06/12 00:24:23;;;;;;;;;11.00;10.25;;;;;24.39;36.44;101562.44;5049091;28;8849;-64
2023/06/12 00:26:50;;;;;;;;;9.25;9.25;;;;;24.39;36.48;101558.88;5049240;28;8942;-63
2023/06/12 00:29:17;;;;;;;;;9.75;9.00;;;;;24.36;36.35;101562.94;5050430;28;9577;-67
2023/06/12 00:31:44;;;;;;;;;9.25;9.25;;;;;24.32;36.53;101561.00;5048870;28;8949;-64
2023/06/12 00:34:11;;;;;;;;;9.25;9.25;;;;;24.30;36.77;101565.94;5048829;28;9678;-65
2023/06/12 00:36:37;;;;;;;;;11.00;10.50;;;;;24.26;36.64;101568.41;5049278;28;8826;-64
2023/06/12 00:39:05;;;;;;;;;9.00;9.00;;;;;24.27;36.79;101566.50;5050325;28;8837;-64
2023/06/12 00:41:32;;;;;;;;;14.00;11.50;;;;;24.26;36.52;101567.56;5050105;28;8818;-65
2023/06/12 00:43:58;;;;;;;;;9.25;7.50;;;;;24.27;36.78;101564.56;5049907;28;8830;-64
2023/06/12 00:46:25;;;;;;;;;8.25;8.25;;;;;24.26;36.92;101568.41;5048782;28;9225;-65
2023/06/12 00:48:52;;;;;;;;;9.00;8.00;;;;;24.29;36.89;101570.63;5050111;28;8821;-64
2023/06/12 00:51:18;;;;;;;;;12.25;10.00;;;;;24.27;36.60;101563.75;5048865;28;8838;-64
2023/06/12 00:53:45;;;;;;;;;8.00;8.00;;;;;24.21;36.74;101573.06;5050022;28;8852;-65
2023/06/12 00:56:13;;;;;;;;;9.50;9.50;;;;;24.18;36.87;101566.16;5048495;28;9657;-64
2023/06/12 00:58:40;;;;;;;;;9.75;9.25;;;;;24.18;36.27;101566.16;5048645;28;8946;-64
2023/06/12 01:01:08;;;;;;;;;10.50;10.50;;;;;24.11;36.64;101558.16;5048748;28;8825;-64
2023/06/12 01:03:36;;;;;;;;;9.00;8.00;;;;;24.07;36.81;101564.47;5048750;28;8822;-64
2023/06/12 01:06:07;;;;;;;;;1.25;0.25;;;;;24.06;36.64;101568.28;5048552;28;8948;-63
2023/06/12 01:08:46;;;;;;;;;8.75;7.00;;;;;24.02;37.32;101567.16;5048661;28;9593;-65
2023/06/12 01:11:13;;;;;;;;;14.00;11.00;;;;;24.00;37.01;101570.19;5048365;28;8848;-64
2023/06/12 01:13:41;;;;;;;;;10.75;10.50;;;;;23.94;37.00;101563.00;5048525;28;8903;-63
2023/06/12 01:16:07;;;;;;;;;9.25;9.25;;;;;23.90;36.70;101561.88;5049753;28;8861;-63
2023/06/12 01:18:34;;;;;;;;;8.75;8.75;;;;;23.88;37.01;101564.91;5049787;28;9596;-64
2023/06/12 01:21:12;;;;;;;;;12.25;9.00;;;;;23.85;37.30;101568.19;5048405;28;8934;-64
2023/06/12 01:23:39;;;;;;;;;10.25;10.25;;;;;23.78;37.00;101573.09;5048301;28;8838;-65
2023/06/12 01:26:06;;;;;;;;;11.50;10.00;;;;;23.77;36.92;101567.84;5048134;28;8957;-65
2023/06/12 01:28:45;;;;;;;;;8.75;8.75;;;;;23.74;37.87;101565.63;5048483;28;8853;-65
2023/06/12 01:31:26;;;;;;;;;9.75;9.00;;;;;23.72;37.68;101565.06;5049857;28;8836;-65
2023/06/12 01:34:02;;;;;;;;;8.25;8.25;;;;;23.65;37.35;101570.75;5051041;28;8856;-64
2023/06/12 01:36:36;;;;;;;;;10.50;9.75;;;;;23.64;37.39;101569.94;5052381;28;8840;-65
2023/06/12 01:39:04;;;;;;;;;8.25;8.25;;;;;23.63;37.28;101568.28;5052300;28;8856;-64
2023/06/12 01:41:32;;;;;;;;;11.00;9.00;;;;;23.61;37.49;101567.69;5052217;28;8856;-64
2023/06/12 01:44:08;;;;;;;;;9.00;8.00;;;;;23.62;38.15;101565.81;5035715;28;8879;-65
2023/06/12 01:46:35;;;;;;;;;10.00;9.75;;;;;23.61;37.69;101569.63;5035641;28;8842;-65
2023/06/12 01:49:04;;;;;;;;;10.00;10.00;;;;;23.60;37.59;101570.72;5052144;28;8834;-65
2023/06/12 01:51:30;;;;;;;;;10.00;10.00;;;;;23.56;37.91;101559.44;5053428;28;8988;-65
2023/06/12 01:53:57;;;;;;;;;9.75;9.50;;;;;23.54;37.88;101567.13;5051899;28;8846;-65
2023/06/12 01:56:27;;;;;;;;;10.00;9.00;;;;;23.56;37.86;101572.34;5051815;28;8838;-65
2023/06/12 01:58:54;;;;;;;;;8.00;7.25;;;;;23.55;38.01;101568.78;5051967;28;8833;-65
2023/06/12 02:01:36;;;;;;;;;9.50;8.75;;;;;23.53;37.87;101568.19;5052120;28;8822;-65
2023/06/12 02:04:03;;;;;;;;;8.00;8.00;;;;;23.50;38.15;101577.00;5051530;28;9652;-65
2023/06/12 02:06:29;;;;;;;;;9.75;8.75;;;;;23.48;38.10;101573.66;5051810;28;8830;-65
2023/06/12 02:08:56;;;;;;;;;7.00;6.75;;;;;23.47;38.18;101577.50;5035230;28;8841;-65
2023/06/12 02:11:23;;;;;;;;;11.00;11.00;;;;;23.42;38.29;101574.72;5051799;28;8830;-65
2023/06/12 02:13:50;;;;;;;;;8.25;7.75;;;;;23.41;38.33;101573.03;5051522;28;8834;-65
2023/06/12 02:16:21;;;;;;;;;9.00;9.00;;;;;23.38;38.03;101581.84;5034938;28;8840;-65
2023/06/12 02:18:48;;;;;;;;;8.25;8.25;;;;;23.36;38.31;101573.84;5051654;28;9669;-65
2023/06/12 02:21:15;;;;;;;;;8.25;8.25;;;;;23.34;38.48;101580.69;5051599;28;8842;-65
2023/06/12 02:23:42;;;;;;;;;8.00;8.00;;;;;23.31;38.52;101579.28;5035056;28;8838;-66
2023/06/12 02:26:09;;;;;;;;;9.25;9.25;;;;;23.27;38.62;101567.16;5051499;28;8814;-65
2023/06/12 02:28:40;;;;;;;;;8.00;7.50;;;;;23.24;38.47;101572.34;5051561;28;8818;-66
2023/06/12 02:31:06;;;;;;;;;10.50;10.50;;;;;23.18;38.66;101580.56;5051525;28;9580;-64
2023/06/12 02:33:37;;;;;;;;;9.25;9.25;;;;;23.17;38.90;101581.66;5051432;28;8841;-64
2023/06/12 02:36:07;;;;;;;;;11.25;10.25;;;;;23.11;38.81;101579.94;5051152;28;8834;-64
2023/06/12 02:38:35;;;;;;;;;13.50;11.50;;;;;23.10;38.96;101574.72;5051249;28;8841;-64
2023/06/12 02:41:01;;;;;;;;;10.25;10.00;;;;;23.08;39.11;101577.69;5051425;28;8860;-65
2023/06/12 02:43:28;;;;;;;;;8.75;7.00;;;;;23.05;39.35;101580.13;5051188;28;8850;-64
2023/06/12 02:45:54;;;;;;;;;9.50;8.00;;;;;23.01;39.32;101573.50;5049988;28;8833;-66
2023/06/12 02:48:25;;;;;;;;;8.50;8.00;;;;;23.02;39.78;101575.19;5035355;28;9603;-65
2023/06/12 02:50:51;;;;;;;;;12.00;10.00;;;;;23.03;39.65;101577.66;5052410;28;8837;-65
2023/06/12 02:53:18;;;;;;;;;7.25;7.25;;;;;23.02;39.86;101570.50;5050916;28;8826;-64
2023/06/12 02:55:45;;;;;;;;;9.25;7.25;;;;;23.01;40.18;101582.59;5050932;28;8903;-67
2023/06/12 02:58:12;;;;;;;;;9.25;8.25;;;;;22.98;40.21;101577.63;5035048;28;8845;-64
2023/06/12 03:00:39;;;;;;;;;8.50;8.50;;;;;22.92;40.41;101575.88;5051157;28;8856;-65
2023/06/12 03:03:06;;;;;;;;;9.25;9.25;;;;;22.88;40.66;101577.47;5050820;28;8830;-64
2023/06/12 03:05:34;;;;;;;;;9.25;9.25;;;;;22.82;40.62;101587.56;5050559;28;8830;-64
2023/06/12 03:08:02;;;;;;;;;9.75;9.00;;;;;22.78;40.48;101578.19;5050772;28;8961;-65
2023/06/12 03:10:30;;;;;;;;;9.25;8.75;;;;;22.79;40.67;101570.78;5050769;28;8837;-66
2023/06/12 03:12:57;;;;;;;;;8.50;8.50;;;;;22.79;40.83;101581.78;5050745;28;8834;-64
2023/06/12 03:15:24;;;;;;;;;10.50;8.75;;;;;22.74;40.81;101582.53;5033799;28;8980;-65
2023/06/12 03:17:50;;;;;;;;;8.75;8.00;;;;;22.73;41.15;101580.03;5050479;28;8885;-65
2023/06/12 03:20:17;;;;;;;;;8.50;7.75;;;;;22.68;41.21;101584.38;5050247;28;8841;-66
2023/06/12 03:22:44;;;;;;;;;9.50;8.00;;;;;22.67;41.57;101581.91;5050375;28;8829;-65
2023/06/12 03:25:12;;;;;;;;;10.50;10.00;;;;;22.64;41.56;101582.41;5049998;28;8845;-65
2023/06/12 03:27:38;;;;;;;;;7.50;7.50;;;;;22.61;41.79;101586.53;5050328;28;8986;-65
2023/06/12 03:30:06;;;;;;;;;8.00;7.00;;;;;22.59;42.10;101582.38;5050372;28;8830;-65
2023/06/12 03:32:32;;;;;;;;;9.00;8.50;;;;;22.55;41.92;101590.28;5033621;28;8853;-65
2023/06/12 03:35:02;;;;;;;;;8.75;8.00;;;;;22.51;42.30;101585.56;5049838;28;9588;-65
2023/06/12 03:37:28;;;;;;;;;11.33;10.67;;;;;22.46;42.60;101587.16;5050041;28;8837;-65
2023/06/12 03:39:59;;;;;;;;;9.50;8.75;;;;;22.43;42.81;101581.34;5034120;28;8928;-64
2023/06/12 03:42:27;;;;;;;;;9.00;8.00;;;;;22.41;42.81;101587.09;5050106;28;8907;-64
2023/06/12 03:44:56;;;;;;;;;8.00;8.00;;;;;22.40;43.37;101585.44;5033670;28;8834;-67
2023/06/12 03:47:24;;;;;;;;;8.75;7.75;;;;;22.40;43.64;101585.44;5049997;28;8834;-65
2023/06/12 03:49:51;;;;;;;;;5.25;5.25;;;;;22.41;43.70;101589.03;5049975;28;9569;-64
2023/06/12 03:52:18;;;;;;;;;7.25;7.00;;;;;22.41;44.03;101595.34;5049747;28;9747;-64
2023/06/12 03:54:46;;;;;;;;;8.50;7.75;;;;;22.41;44.35;101597.25;5049532;28;8903;-64
2023/06/12 03:57:12;;;;;;;;;8.25;7.50;;;;;22.42;44.86;101596.16;5049607;28;8825;-65
2023/06/12 03:59:39;;;;;;;;;8.50;6.75;;;;;22.42;44.95;101596.97;5049641;28;8891;-64
2023/06/12 04:02:06;;;;;;;;;9.00;9.00;;;;;22.40;45.17;101596.44;5049442;28;8826;-64
2023/06/12 04:04:32;;;;;;;;;8.00;8.00;;;;;22.38;44.93;101592.25;5050775;28;9610;-64
2023/06/12 04:06:59;;;;;;;;;8.50;8.25;;;;;22.33;44.59;101598.53;5049524;28;8907;-64
2023/06/12 04:09:26;;;;;;;;;8.25;7.75;;;;;22.41;44.52;101591.75;5049622;28;9571;-64
2023/06/12 04:11:53;;;;;;;;;8.00;8.00;;;;;22.49;44.81;101598.72;5049351;28;8829;-64
2023/06/12 04:14:21;;;;;;;;;7.00;6.00;;;;;22.49;44.40;101605.03;5050436;28;8818;-64
2023/06/12 04:16:48;;;;;;;;;10.00;9.50;;;;;22.48;44.56;101603.34;5049316;28;8931;-65
2023/06/12 04:19:15;;;;;;;;;6.75;6.75;;;;;22.45;44.64;101598.41;5049296;28;9252;-64
2023/06/12 04:21:42;;;;;;;;;8.75;8.75;;;;;22.44;44.75;101607.69;5050489;28;8825;-65
2023/06/12 04:24:13;;;;;;;;;7.25;5.50;;;;;22.40;45.05;101609.28;5048916;28;9696;-66
2023/06/12 04:26:43;;;;;;;;;4.25;4.25;;;;;22.35;45.25;101607.31;5049163;28;8837;-65
2023/06/12 04:29:12;;;;;;;;;9.00;8.50;;;;;22.33;45.38;101614.16;5049122;28;8834;-65
2023/06/12 04:31:39;;;;;;;;;9.00;8.00;;;;;22.32;45.56;101607.84;5048998;28;8822;-65
2023/06/12 04:34:07;;;;;;;;;8.75;8.75;;;;;22.29;45.80;101611.09;5048850;28;8838;-66
2023/06/12 04:36:37;;;;;;;;;10.50;10.25;;;;;22.27;46.14;101605.00;5048963;28;8991;-66
2023/06/12 04:39:05;;;;;;;;;9.00;9.00;;;;;22.25;46.31;101612.66;5032653;28;8834;-65
2023/06/12 04:41:32;;;;;;;;;7.75;7.75;;;;;22.23;46.67;101611.25;5048884;28;8810;-64
2023/06/12 04:44:00;;;;;;;;;9.50;8.00;;;;;22.21;46.71;101612.34;5048708;28;8836;-67
2023/06/12 04:46:32;;;;;;;;;9.50;9.50;;;;;22.22;46.33;101610.44;5048915;28;8857;-65
2023/06/12 04:49:00;;;;;;;;;8.25;8.25;;;;;22.23;46.64;101614.81;5048892;28;8931;-65
2023/06/12 04:51:27;;;;;;;;;6.25;6.25;;;;;22.23;46.84;101608.50;5050195;28;8822;-65
2023/06/12 04:53:55;;;;;;;;;10.00;10.00;;;;;22.22;47.01;101607.69;5048741;28;8838;-65
2023/06/12 04:56:21;;;;;;;;;10.75;9.75;;;;;22.23;47.01;101614.81;5048421;28;8829;-64
2023/06/12 04:58:53;;;;;;;;;8.00;7.25;;;;;22.23;47.28;101605.78;5032360;28;8985;-64
2023/06/12 05:01:21;;;;;;;;;7.33;7.33;;;;;22.23;47.04;101608.50;5032272;28;8837;-64
2023/06/12 05:03:52;;;;;;;;;7.25;7.00;;;;;22.25;46.81;101607.19;5053818;22;9053;-67
2023/06/12 05:06:20;;;;;;;;;9.00;9.00;;;;;22.28;46.62;101619.53;5009847;28;8825;-66
2023/06/12 05:08:48;;;;;;;;;8.00;8.00;;;;;22.29;46.27;101616.56;5024618;28;8837;-66
2023/06/12 05:11:14;;;;;;;;;7.75;7.00;;;;;22.29;45.29;101611.09;5008608;28;8848;-67
2023/06/12 05:13:41;;;;;;;;;13.25;8.75;;;;;22.27;44.85;101620.63;5021739;28;8835;-67
2023/06/12 05:16:08;;;;;;;;;9.00;9.00;;;;;22.26;44.75;101614.31;5021722;28;8851;-67
2023/06/12 05:18:35;;;;;;;;;9.00;8.25;;;;;22.27;44.93;101615.16;5005372;28;8831;-66
2023/06/12 05:21:03;;;;;;;;;7.00;7.00;;;;;22.29;44.79;101621.22;5005374;28;9644;-67
2023/06/12 05:23:29;;;;;;;;;10.25;10.25;;;;;22.30;44.52;101620.97;4990364;28;8839;-67
2023/06/12 05:25:56;;;;;;;;;10.50;9.50;;;;;22.33;44.55;101620.47;4990142;28;8914;-65
2023/06/12 05:28:25;;;;;;;;;10.75;9.25;;;;;22.42;44.57;101620.84;5005274;28;8850;-65
2023/06/12 05:30:51;;;;;;;;;10.00;10.00;;;;;22.52;44.28;101617.38;5005297;28;8862;-66
2023/06/12 05:33:18;;;;;;;;;13.75;13.25;;;;;22.56;43.54;101621.28;5005228;28;8835;-66
2023/06/12 05:35:45;;;;;;;;;12.50;8.50;;;;;22.73;43.30;101623.94;4990029;28;8873;-65
2023/06/12 05:38:11;;;;;;;;;15.50;13.50;;;;;22.89;42.98;101620.34;5021533;28;8839;-65
2023/06/12 05:40:39;;;;;;;;;12.50;11.50;;;;;23.10;43.06;101621.41;5005193;28;8847;-66
2023/06/12 05:43:06;;;;;;;;;13.25;12.00;;;;;23.32;42.80;101622.16;4988808;28;8870;-66
2023/06/12 05:45:33;;;;;;;;;12.50;11.75;;;;;23.42;43.52;101629.69;4989881;28;8958;-66
2023/06/12 05:48:01;;;;;;;;;10.25;10.25;;;;;23.50;43.22;101625.59;5005287;28;8862;-66
2023/06/12 05:50:28;;;;;;;;;14.00;10.50;;;;;23.59;42.94;101624.03;5021112;28;8839;-66
2023/06/12 05:52:55;;;;;;;;;9.50;9.50;;;;;23.64;43.28;101626.81;4989921;28;8898;-66
2023/06/12 05:55:22;;;;;;;;;10.75;8.75;;;;;23.60;43.14;101623.78;5004502;28;8820;-66
2023/06/12 05:57:48;;;;;;;;;13.25;13.25;;;;;23.57;43.16;101631.72;5004958;28;8834;-66
2023/06/12 06:00:21;;;;;;;;;12.25;12.25;;;;;23.44;42.83;101627.47;5004075;28;8855;-65
2023/06/12 06:02:52;;;;;;;;;16.25;13.00;;;;;23.30;43.23;101624.34;5021000;28;8853;-66
2023/06/12 06:05:32;;;;;;;;;11.75;11.75;;;;;23.23;44.16;101628.41;5004658;28;9201;-65
2023/06/12 06:08:07;;;;;;;;;13.00;12.50;;;;;23.21;44.81;101631.38;5004968;28;8839;-66
2023/06/12 06:10:37;;;;;;;;;10.00;9.75;;;;;23.26;45.06;101638.88;4988561;28;8847;-66
2023/06/12 06:13:03;;;;;;;;;13.25;13.25;;;;;23.29;45.22;101632.84;4989651;28;8835;-66
2023/06/12 06:15:30;;;;;;;;;12.00;11.75;;;;;23.30;45.67;101629.84;5004168;28;8937;-66
2023/06/12 06:17:57;;;;;;;;;13.75;13.25;;;;;23.18;44.68;101631.91;5020711;28;8831;-66
2023/06/12 06:20:26;;;;;;;;;14.75;11.25;;;;;23.16;45.56;101634.09;5006231;28;8932;-66
2023/06/12 06:22:52;;;;;;;;;13.25;13.25;;;;;23.11;44.91;101628.53;5008036;28;8885;-65
2023/06/12 06:25:20;;;;;;;;;10.50;10.50;;;;;23.06;45.01;101634.00;5007825;28;8823;-65
2023/06/12 06:27:46;;;;;;;;;13.25;12.75;;;;;23.06;44.70;101632.06;5008071;28;8848;-65
2023/06/12 06:30:13;;;;;;;;;15.25;15.00;;;;;23.07;44.48;101630.97;4992866;28;9564;-66
2023/06/12 06:32:40;;;;;;;;;14.50;13.50;;;;;23.13;44.52;101640.09;5007649;28;8851;-67
2023/06/12 06:35:07;;;;;;;;;11.25;10.00;;;;;23.15;44.63;101644.25;4992578;28;9539;-65
2023/06/12 06:37:35;;;;;;;;;10.50;10.50;;;;;23.22;44.65;101635.81;5007787;28;8835;-66
2023/06/12 06:40:04;;;;;;;;;11.50;10.50;;;;;23.23;44.43;101631.97;5007531;28;8866;-66
2023/06/12 06:42:31;;;;;;;;;13.50;12.50;;;;;23.25;43.51;101634.44;5006988;28;8854;-66
2023/06/12 06:45:05;;;;;;;;;10.50;10.50;;;;;23.23;44.24;101645.69;5007049;28;8835;-66
2023/06/12 06:47:34;;;;;;;;;16.00;14.00;;;;;23.26;44.72;101639.69;4991108;28;9760;-66
2023/06/12 06:50:02;;;;;;;;;11.25;11.25;;;;;23.32;44.42;101643.31;5007167;28;8913;-66
2023/06/12 06:52:29;;;;;;;;;15.25;12.50;;;;;23.31;44.63;101642.47;5007711;28;8843;-65
2023/06/12 06:54:57;;;;;;;;;10.75;10.75;;;;;23.34;44.62;101636.47;5023383;28;8969;-67
2023/06/12 06:57:26;;;;;;;;;12.75;12.75;;;;;23.36;44.47;101641.69;5007554;28;8826;-67
2023/06/12 06:59:55;;;;;;;;;11.50;11.50;;;;;23.39;44.96;101636.50;5007839;28;8865;-67
2023/06/12 07:02:23;;;;;;;;;22.67;21.00;;;;;23.42;44.64;101637.94;4991838;28;8839;-67
2023/06/12 07:04:52;;;;;;;;;15.75;14.50;;;;;23.50;44.77;101637.44;5023716;28;9013;-66
2023/06/12 07:07:19;;;;;;;;;8.75;8.25;;;;;23.55;44.41;101642.97;5007434;28;8831;-67
2023/06/12 07:09:46;;;;;;;;;15.50;14.00;;;;;23.59;43.49;101637.78;5023903;28;9021;-66
2023/06/12 07:12:13;;;;;;;;;13.50;13.50;;;;;23.62;43.88;101642.78;5007369;28;8831;-66
2023/06/12 07:14:40;;;;;;;;;16.75;14.75;;;;;23.66;44.19;101633.78;5007051;28;8862;-67
2023/06/12 07:17:07;;;;;;;;;18.25;17.75;;;;;23.74;43.23;101634.34;5023505;28;8851;-67
2023/06/12 07:19:33;;;;;;;;;11.00;9.75;;;;;23.76;43.64;101634.94;5007052;28;8867;-67
2023/06/12 07:22:00;;;;;;;;;12.33;12.00;;;;;23.79;44.16;101632.47;4991998;28;8838;-66
2023/06/12 07:24:27;;;;;;;;;13.50;13.50;;;;;23.89;44.28;101628.97;5006777;28;8831;-66
2023/06/12 07:26:53;;;;;;;;;16.00;15.75;;;;;23.93;43.75;101627.34;5023492;28;8819;-67
2023/06/12 07:29:22;;;;;;;;;16.00;15.75;;;;;23.94;43.67;101640.00;5006839;28;8851;-66
2023/06/12 07:31:49;;;;;;;;;9.50;9.00;;;;;23.99;43.63;101637.31;4990032;28;8854;-66
2023/06/12 07:34:16;;;;;;;;;12.00;12.00;;;;;24.00;42.80;101638.97;5006285;28;8839;-66
2023/06/12 07:36:43;;;;;;;;;17.75;17.25;;;;;24.05;42.04;101635.41;5006702;28;8835;-67
2023/06/12 07:39:10;;;;;;;;;13.50;12.50;;;;;24.02;42.27;101636.75;4991861;28;8873;-67
2023/06/12 07:41:39;;;;;;;;;15.25;13.50;;;;;24.02;42.34;101636.75;5023014;28;9633;-66
2023/06/12 07:44:06;;;;;;;;;15.75;14.00;;;;;24.03;41.31;101635.69;5006305;28;8873;-67
2023/06/12 07:46:33;;;;;;;;;16.50;16.00;;;;;24.08;41.51;101637.63;5006788;28;8827;-67
2023/06/12 07:49:00;;;;;;;;;13.50;13.00;;;;;24.10;41.46;101636.25;5006371;28;9585;-67
2023/06/12 07:51:27;;;;;;;;;13.75;13.50;;;;;24.14;42.08;101631.88;5006552;28;8921;-67
2023/06/12 07:53:54;;;;;;;;;17.25;15.00;;;;;24.21;41.72;101636.34;4991495;28;8850;-66
2023/06/12 07:56:22;;;;;;;;;15.50;15.50;;;;;24.26;42.71;101636.34;4989792;28;8842;-65
2023/06/12 07:58:51;;;;;;;;;14.75;12.50;;;;;24.22;43.27;101633.31;5006433;28;8831;-66
2023/06/12 08:01:18;;;;;;;;;16.75;14.50;;;;;24.25;43.76;101635.53;5006146;28;9577;-66
2023/06/12 08:03:45;;;;;;;;;13.50;11.75;;;;;24.30;44.26;101637.47;4990805;28;8843;-67
2023/06/12 08:06:17;;;;;;;;;17.25;16.00;;;;;24.32;44.70;101638.06;5006044;28;8957;-66
2023/06/12 08:08:46;;;;;;;;;14.25;14.25;;;;;24.36;44.71;101633.66;4989836;28;8897;-66
2023/06/12 08:11:15;;;;;;;;;15.75;15.25;;;;;24.45;46.08;101642.28;5005649;28;8869;-66
2023/06/12 08:13:45;;;;;;;;;17.75;15.75;;;;;24.49;45.71;101637.88;5005564;28;8875;-67
2023/06/12 08:16:13;;;;;;;;;16.75;16.75;;;;;24.47;45.91;101634.56;5004879;28;8855;-66
2023/06/12 08:18:40;;;;;;;;;16.50;16.50;;;;;24.46;46.23;101639.25;5006155;28;8870;-66
2023/06/12 08:21:07;;;;;;;;;17.50;16.75;;;;;24.41;45.91;101639.22;5006022;28;8847;-65
2023/06/12 08:23:34;;;;;;;;;15.00;13.75;;;;;24.45;46.33;101636.75;5005816;28;8967;-66
2023/06/12 08:26:04;;;;;;;;;19.75;19.00;;;;;24.41;45.51;101640.03;5005482;28;9022;-65
2023/06/12 08:28:33;;;;;;;;;14.00;14.00;;;;;24.37;45.73;101636.13;5005864;28;8849;-66
2023/06/12 08:31:01;;;;;;;;;15.75;15.00;;;;;24.32;45.72;101640.81;4991190;28;8866;-65
2023/06/12 08:33:28;;;;;;;;;17.50;17.25;;;;;24.31;45.47;101636.41;5005988;28;9570;-65
2023/06/12 08:35:55;;;;;;;;;16.25;16.25;;;;;24.34;45.94;101636.66;5005626;28;8843;-66
2023/06/12 08:38:24;;;;;;;;;16.75;15.00;;;;;24.34;45.15;101633.91;4990962;28;8838;-66
2023/06/12 08:40:54;;;;;;;;;19.25;16.25;;;;;24.35;45.44;101637.53;5005748;28;8882;-66
2023/06/12 08:43:20;;;;;;;;;14.00;14.00;;;;;24.40;46.05;101632.06;5004689;28;9605;-66
2023/06/12 08:45:50;;;;;;;;;15.25;11.25;;;;;24.46;46.01;101644.75;5005094;28;8969;-66
2023/06/12 08:48:19;;;;;;;;;17.75;16.50;;;;;24.52;45.23;101635.44;4990671;28;8930;-66
2023/06/12 08:50:47;;;;;;;;;15.50;15.00;;;;;24.52;45.56;101637.34;4990202;28;8851;-67
2023/06/12 08:53:15;;;;;;;;;16.00;15.00;;;;;24.54;45.78;101630.47;4988816;28;8838;-66
2023/06/12 08:55:44;;;;;;;;;18.25;17.75;;;;;24.63;45.25;101642.66;4989975;28;8831;-66
2023/06/12 08:58:11;;;;;;;;;17.00;16.50;;;;;24.67;44.84;101634.66;5005534;28;8827;-66
2023/06/12 09:00:38;;;;;;;;;18.75;18.75;;;;;24.68;45.38;101630.81;4990305;28;8847;-66
2023/06/12 09:03:06;;;;;;;;;13.50;13.50;;;;;24.72;45.47;101636.63;5005211;28;8859;-67
2023/06/12 09:05:37;;;;;;;;;14.50;14.50;;;;;24.73;45.25;101630.00;4990147;28;8819;-66
2023/06/12 09:08:04;;;;;;;;;18.00;18.00;;;;;24.80;45.28;101630.59;4990265;28;8932;-65
2023/06/12 09:10:35;;;;;;;;;15.75;15.75;;;;;24.77;45.03;101631.94;4989913;28;8835;-65
2023/06/12 09:13:09;;;;;;;;;20.00;16.50;;;;;24.74;45.47;101631.66;4990352;28;8827;-66
2023/06/12 09:15:37;;;;;;;;;18.75;18.75;;;;;24.78;45.14;101632.78;4990107;28;8897;-66
2023/06/12 09:18:10;;;;;;;;;15.75;13.75;;;;;24.77;45.23;101633.88;4990170;28;9609;-66
2023/06/12 09:20:38;;;;;;;;;19.75;17.00;;;;;24.77;45.49;101634.69;5004968;28;8987;-66
2023/06/12 09:23:11;;;;;;;;;16.25;15.25;;;;;24.77;45.02;101637.44;4990178;28;8835;-66
2023/06/12 09:25:40;;;;;;;;;18.00;18.00;;;;;24.71;44.26;101635.75;4989982;28;8849;-66
2023/06/12 09:28:09;;;;;;;;;14.50;14.50;;;;;24.71;45.12;101640.44;4990231;28;8847;-66
2023/06/12 09:30:40;;;;;;;;;13.25;13.00;;;;;24.75;45.29;101633.31;4990095;28;9582;-66
2023/06/12 09:33:07;;;;;;;;;17.50;15.75;;;;;24.81;45.18;101635.00;5005060;28;8866;-66
2023/06/12 09:35:53;;;;;;;;;15.25;13.50;;;;;24.84;44.61;101632.53;4989575;28;8850;-66
2023/06/12 09:38:33;;;;;;;;;14.25;12.75;;;;;24.86;45.10;101638.56;5005011;28;8843;-66
2023/06/12 09:41:05;;;;;;;;;19.00;16.25;;;;;24.95;44.34;101629.78;5005127;28;8867;-65
2023/06/12 09:43:32;;;;;;;;;14.00;13.75;;;;;24.97;44.33;101638.63;4989882;28;8835;-67
2023/06/12 09:46:02;;;;;;;;;12.75;11.75;;;;;25.07;44.74;101635.88;4989823;28;8823;-66
2023/06/12 09:48:36;;;;;;;;;15.25;13.75;;;;;25.18;45.01;101634.84;4990014;28;8853;-67
2023/06/12 09:51:09;;;;;;;;;15.50;13.50;;;;;25.27;44.36;101637.88;4990170;28;8835;-66
2023/06/12 09:53:38;;;;;;;;;12.75;12.75;;;;;25.30;44.48;101632.66;5005683;28;9670;-66
2023/06/12 09:56:07;;;;;;;;;15.00;15.00;;;;;25.37;43.68;101630.44;4994108;28;8823;-67
2023/06/12 09:58:38;;;;;;;;;11.75;11.25;;;;;25.46;43.61;101638.19;4993487;28;8851;-67
2023/06/12 10:01:06;;;;;;;;;13.75;13.00;;;;;25.51;43.43;101633.47;4993741;28;8851;-66
2023/06/12 10:03:35;;;;;;;;;11.00;11.00;;;;;25.57;43.10;101626.88;4993251;28;8839;-66
2023/06/12 10:06:05;;;;;;;;;15.50;14.25;;;;;25.66;43.32;101629.91;5024921;28;8828;-66
2023/06/12 10:08:33;;;;;;;;;17.50;14.50;;;;;25.80;42.48;101625.50;4993395;28;8867;-67
2023/06/12 10:11:00;;;;;;;;;15.50;14.75;;;;;25.84;41.70;101623.84;4993277;28;8886;-67
2023/06/12 10:13:27;;;;;;;;;14.50;13.00;;;;;25.92;42.26;101630.72;4993206;28;8823;-67
2023/06/12 10:15:55;;;;;;;;;13.25;12.00;;;;;25.99;42.61;101628.53;5008185;28;8842;-67
2023/06/12 10:18:23;;;;;;;;;12.00;12.00;;;;;26.10;42.96;101630.16;4993356;28;8862;-66
2023/06/12 10:20:50;;;;;;;;;10.00;10.00;;;;;26.07;43.29;101627.94;4993011;28;8855;-66
2023/06/12 10:23:17;;;;;;;;;15.00;15.00;;;;;26.05;43.49;101626.56;4993122;28;8855;-66
2023/06/12 10:25:45;;;;;;;;;12.75;12.75;;;;;26.02;43.57;101627.16;4992885;28;8831;-66
2023/06/12 10:28:13;;;;;;;;;11.50;11.50;;;;;26.00;42.42;101621.06;5008336;28;8855;-66
2023/06/12 10:31:10;;;;;;;;;14.50;14.50;;;;;26.00;42.50;101621.06;4993294;28;8969;-66
2023/06/12 10:33:38;;;;;;;;;16.50;16.00;;;;;26.02;42.49;101627.16;4992894;28;8863;-66
2023/06/12 10:36:11;;;;;;;;;14.25;13.50;;;;;26.05;42.16;101621.91;5007595;28;8823;-67
2023/06/12 10:38:46;;;;;;;;;13.25;12.50;;;;;26.10;41.25;101613.59;4992963;28;8951;-66
2023/06/12 10:41:29;;;;;;;;;13.25;13.25;;;;;26.10;41.10;101610.84;4992963;28;8867;-67
2023/06/12 10:43:55;;;;;;;;;14.75;14.25;;;;;26.11;39.62;101606.97;5007716;28;8941;-66
2023/06/12 10:46:44;;;;;;;;;16.75;15.75;;;;;26.16;39.61;101602.53;5007097;28;8885;-66
2023/06/12 10:49:12;;;;;;;;;15.75;15.75;;;;;26.16;39.45;101597.84;4992611;28;8827;-67
2023/06/12 10:51:46;;;;;;;;;13.75;13.75;;;;;26.21;38.74;101597.00;5024247;28;8855;-67
2023/06/12 10:54:16;;;;;;;;;14.00;14.00;;;;;26.31;38.20;101608.03;4992430;28;8839;-67
2023/06/12 10:56:58;;;;;;;;;18.25;17.25;;;;;26.31;38.77;101591.47;4992413;28;8901;-67
2023/06/12 10:59:34;;;;;;;;;15.00;15.00;;;;;26.30;38.09;101590.63;4992715;28;8828;-67
2023/06/12 11:02:02;;;;;;;;;15.75;15.75;;;;;26.34;38.84;101599.19;4992391;28;8870;-67
2023/06/12 11:04:39;;;;;;;;;18.50;16.50;;;;;26.34;37.12;101590.91;4992623;28;8869;-66
2023/06/12 11:07:06;;;;;;;;;14.75;12.00;;;;;26.40;38.54;101592.50;5022982;28;9526;-66
2023/06/12 11:09:39;;;;;;;;;15.50;14.50;;;;;26.45;39.96;101591.69;4992514;28;8827;-67
2023/06/12 11:12:07;;;;;;;;;15.25;15.25;;;;;26.48;39.09;101589.19;4992268;28;8973;-66
2023/06/12 11:14:33;;;;;;;;;16.50;15.00;;;;;26.50;39.76;101591.69;4992020;28;8851;-66
2023/06/12 11:17:00;;;;;;;;;12.75;12.75;;;;;26.54;39.35;101590.03;4992277;28;9369;-66
2023/06/12 11:19:30;;;;;;;;;11.75;11.75;;;;;26.60;38.69;101589.69;4992236;28;8868;-66
2023/06/12 11:21:57;;;;;;;;;19.00;16.25;;;;;26.65;38.38;101597.13;5007076;28;8835;-67
2023/06/12 11:24:26;;;;;;;;;12.75;12.75;;;;;26.69;38.79;101591.84;5023265;28;9593;-66
2023/06/12 11:26:53;;;;;;;;;13.75;13.50;;;;;26.69;38.99;101594.63;4992108;28;8945;-67
2023/06/12 11:29:22;;;;;;;;;16.25;15.50;;;;;26.66;36.93;101593.28;4992122;28;9709;-67
2023/06/12 11:32:04;;;;;;;;;15.25;15.25;;;;;26.62;36.08;101589.44;4991963;28;8854;-67